createdAt,value
2019-05-20T00:00:11.794Z,0.00
2019-05-20T00:01:11.809Z,0.00
2019-05-20T00:02:24.551Z,0.00
2019-05-20T00:03:12.753Z,0.00
2019-05-20T00:04:11.751Z,0.00
2019-05-20T00:05:11.745Z,0.00
2019-05-20T00:06:11.738Z,0.00
2019-05-20T00:07:11.762Z,0.00
2019-05-20T00:08:11.707Z,0.00
2019-05-20T00:09:11.692Z,0.00
2019-05-20T00:10:11.688Z,0.00
2019-05-20T00:11:11.670Z,0.00
2019-05-20T00:12:11.695Z,0.00
2019-05-20T00:13:11.652Z,0.00
2019-05-20T00:14:11.633Z,0.00
2019-05-20T00:15:11.646Z,0.00
2019-05-20T00:16:11.604Z,0.00
2019-05-20T00:17:11.600Z,0.00
2019-05-20T00:18:11.624Z,0.00
2019-05-20T00:19:11.569Z,0.00
2019-05-20T00:20:11.583Z,0.00
2019-05-20T00:21:11.550Z,0.00
2019-05-20T00:22:11.542Z,0.00
2019-05-20T00:23:11.531Z,0.00
2019-05-20T00:24:11.533Z,0.00
2019-05-20T00:25:11.780Z,0.00
2019-05-20T00:26:11.556Z,0.00
2019-05-20T00:27:11.476Z,0.00
2019-05-20T00:28:11.458Z,0.00
2019-05-20T00:29:11.451Z,0.00
2019-05-20T00:30:11.461Z,0.00
2019-05-20T00:31:11.457Z,0.00
2019-05-20T00:32:11.415Z,0.00
2019-05-20T00:33:11.424Z,0.00
2019-05-20T00:34:11.404Z,0.00
2019-05-20T00:35:11.409Z,0.00
2019-05-20T00:36:11.366Z,0.00
2019-05-20T00:37:11.357Z,0.00
2019-05-20T00:38:11.466Z,0.00
2019-05-20T00:39:11.358Z,0.00
2019-05-20T00:40:11.723Z,0.00
2019-05-20T00:41:11.317Z,0.00
2019-05-20T00:42:11.311Z,0.00
2019-05-20T00:43:11.292Z,0.00
2019-05-20T00:44:11.272Z,0.00
2019-05-20T00:45:11.321Z,0.00
2019-05-20T00:46:11.294Z,0.00
2019-05-20T00:47:11.257Z,0.00
2019-05-20T00:48:11.274Z,0.00
2019-05-20T00:49:11.267Z,0.00
2019-05-20T00:50:11.249Z,0.00
2019-05-20T00:51:11.211Z,0.00
2019-05-20T00:52:11.219Z,0.00
2019-05-20T00:53:11.211Z,0.00
2019-05-20T00:54:11.171Z,0.00
2019-05-20T00:55:11.164Z,0.00
2019-05-20T00:56:11.144Z,0.00
2019-05-20T00:57:11.141Z,0.00
2019-05-20T00:58:11.181Z,0.00
2019-05-20T00:59:11.116Z,0.00
2019-05-20T01:00:11.106Z,0.00
2019-05-20T01:01:11.290Z,0.00
2019-05-20T01:02:11.087Z,0.00
2019-05-20T01:03:11.093Z,0.00
2019-05-20T01:04:11.078Z,0.00
2019-05-20T01:05:11.046Z,0.00
2019-05-20T01:06:11.027Z,0.00
2019-05-20T01:07:11.013Z,0.00
2019-05-20T01:08:11.035Z,0.00
2019-05-20T01:09:11.016Z,0.00
2019-05-20T01:10:11.009Z,0.00
2019-05-20T01:11:10.994Z,0.00
2019-05-20T01:12:10.961Z,0.00
2019-05-20T01:13:10.988Z,0.00
2019-05-20T01:14:10.967Z,0.00
2019-05-20T01:15:10.931Z,0.00
2019-05-20T01:16:10.921Z,0.00
2019-05-20T01:17:10.925Z,0.00
2019-05-20T01:18:10.919Z,0.00
2019-05-20T01:19:10.917Z,0.00
2019-05-20T01:20:10.868Z,0.00
2019-05-20T01:21:10.892Z,0.00
2019-05-20T01:22:10.859Z,0.00
2019-05-20T01:23:10.837Z,0.00
2019-05-20T01:24:10.840Z,0.00
2019-05-20T01:25:10.850Z,0.00
2019-05-20T01:26:10.803Z,0.00
2019-05-20T01:27:10.805Z,0.00
2019-05-20T01:28:10.812Z,0.00
2019-05-20T01:29:10.775Z,0.00
2019-05-20T01:30:10.752Z,0.00
2019-05-20T01:31:10.767Z,0.00
2019-05-20T01:32:10.726Z,0.00
2019-05-20T01:33:14.242Z,0.00
2019-05-20T01:34:10.709Z,0.00
2019-05-20T01:35:10.725Z,0.00
2019-05-20T01:36:10.684Z,0.00
2019-05-20T01:37:10.671Z,0.00
2019-05-20T01:38:10.661Z,0.00
2019-05-20T01:39:10.662Z,0.00
2019-05-20T01:40:10.673Z,0.00
2019-05-20T01:41:10.619Z,0.00
2019-05-20T01:42:10.614Z,0.00
2019-05-20T01:43:10.600Z,0.00
2019-05-20T01:44:10.585Z,0.00
2019-05-20T01:45:10.644Z,0.00
2019-05-20T01:46:10.566Z,0.00
2019-05-20T01:47:10.558Z,0.00
2019-05-20T01:48:10.541Z,0.00
2019-05-20T01:49:10.532Z,0.00
2019-05-20T01:50:10.548Z,0.00
2019-05-20T01:51:10.543Z,0.00
2019-05-20T01:52:10.491Z,0.00
2019-05-20T01:53:10.488Z,0.00
2019-05-20T01:54:10.487Z,0.00
2019-05-20T01:55:10.510Z,0.00
2019-05-20T01:56:10.447Z,0.00
2019-05-20T01:57:10.440Z,0.00
2019-05-20T01:58:10.432Z,0.00
2019-05-20T01:59:10.415Z,0.00
2019-05-20T02:00:10.438Z,0.00
2019-05-20T02:01:10.435Z,0.00
2019-05-20T02:02:10.434Z,0.00
2019-05-20T02:03:10.366Z,0.00
2019-05-20T02:04:10.363Z,0.00
2019-05-20T02:05:10.374Z,0.00
2019-05-20T02:06:10.373Z,0.00
2019-05-20T02:07:10.349Z,0.00
2019-05-20T02:08:10.323Z,0.00
2019-05-20T02:09:10.296Z,0.00
2019-05-20T02:10:10.324Z,0.00
2019-05-20T02:11:10.271Z,0.00
2019-05-20T02:12:10.262Z,0.00
2019-05-20T02:13:10.312Z,0.00
2019-05-20T02:14:10.253Z,0.00
2019-05-20T02:15:10.226Z,0.00
2019-05-20T02:16:10.245Z,0.00
2019-05-20T02:17:10.211Z,0.00
2019-05-20T02:18:10.196Z,0.00
2019-05-20T02:19:10.257Z,0.00
2019-05-20T02:20:10.168Z,0.00
2019-05-20T02:21:10.189Z,0.00
2019-05-20T02:22:10.143Z,0.00
2019-05-20T02:23:10.156Z,0.00
2019-05-20T02:24:10.157Z,0.00
2019-05-20T02:25:10.127Z,0.00
2019-05-20T02:26:10.133Z,0.00
2019-05-20T02:27:10.126Z,0.00
2019-05-20T02:28:10.078Z,0.00
2019-05-20T02:29:10.091Z,0.00
2019-05-20T02:30:10.071Z,0.00
2019-05-20T02:31:10.067Z,0.00
2019-05-20T02:32:10.034Z,0.00
2019-05-20T02:33:10.048Z,0.00
2019-05-20T02:34:10.014Z,0.00
2019-05-20T02:35:09.995Z,0.00
2019-05-20T02:36:10.020Z,0.00
2019-05-20T02:37:09.977Z,0.00
2019-05-20T02:38:09.954Z,0.00
2019-05-20T02:39:09.953Z,0.00
2019-05-20T02:40:10.003Z,0.00
2019-05-20T02:41:09.943Z,0.00
2019-05-20T02:42:09.915Z,0.00
2019-05-20T02:43:09.898Z,0.00
2019-05-20T02:44:09.883Z,0.00
2019-05-20T02:45:09.894Z,0.00
2019-05-20T02:46:09.911Z,4.00
2019-05-20T02:47:09.844Z,4.00
2019-05-20T02:48:09.845Z,0.00
2019-05-20T02:49:09.845Z,0.00
2019-05-20T02:50:09.814Z,4.00
2019-05-20T02:51:09.808Z,0.00
2019-05-20T02:52:09.821Z,4.00
2019-05-20T02:53:09.826Z,4.00
2019-05-20T02:54:09.787Z,8.00
2019-05-20T02:55:09.760Z,4.00
2019-05-20T02:56:09.753Z,4.00
2019-05-20T02:57:09.727Z,8.00
2019-05-20T02:58:09.747Z,8.00
2019-05-20T02:59:09.743Z,12.00
2019-05-20T03:00:09.690Z,12.00
2019-05-20T03:01:09.709Z,16.00
2019-05-20T03:02:09.676Z,16.00
2019-05-20T03:03:09.664Z,16.00
2019-05-20T03:04:12.276Z,16.00
2019-05-20T03:05:09.668Z,20.00
2019-05-20T03:06:09.657Z,20.00
2019-05-20T03:07:09.623Z,24.00
2019-05-20T03:08:09.615Z,28.00
2019-05-20T03:09:12.072Z,28.00
2019-05-20T03:10:09.607Z,32.00
2019-05-20T03:11:09.595Z,36.00
2019-05-20T03:12:09.592Z,40.00
2019-05-20T03:13:09.597Z,44.00
2019-05-20T03:14:09.537Z,48.00
2019-05-20T03:15:09.524Z,52.00
2019-05-20T03:16:09.545Z,56.00
2019-05-20T03:17:09.500Z,60.00
2019-05-20T03:18:09.490Z,64.00
2019-05-20T03:19:09.506Z,72.00
2019-05-20T03:20:09.485Z,76.00
2019-05-20T03:21:09.483Z,80.00
2019-05-20T03:22:09.453Z,88.00
2019-05-20T03:23:09.451Z,96.00
2019-05-20T03:24:09.421Z,104.00
2019-05-20T03:25:09.408Z,112.00
2019-05-20T03:26:09.409Z,120.00
2019-05-20T03:27:09.382Z,128.00
2019-05-20T03:28:09.413Z,136.00
2019-05-20T03:29:09.359Z,152.00
2019-05-20T03:30:09.357Z,164.00
2019-05-20T03:31:09.337Z,180.00
2019-05-20T03:32:09.400Z,188.00
2019-05-20T03:33:09.340Z,196.00
2019-05-20T03:34:09.333Z,204.00
2019-05-20T03:35:09.329Z,220.00
2019-05-20T03:36:09.275Z,232.00
2019-05-20T03:37:09.254Z,244.00
2019-05-20T03:38:09.384Z,256.00
2019-05-20T03:39:09.265Z,264.00
2019-05-20T03:40:09.230Z,272.00
2019-05-20T03:41:09.215Z,284.00
2019-05-20T03:42:09.196Z,296.00
2019-05-20T03:43:09.225Z,296.00
2019-05-20T03:44:09.206Z,300.00
2019-05-20T03:45:09.167Z,300.00
2019-05-20T03:46:09.151Z,304.00
2019-05-20T03:47:09.158Z,296.00
2019-05-20T03:48:09.152Z,292.00
2019-05-20T03:49:09.164Z,292.00
2019-05-20T03:50:09.170Z,300.00
2019-05-20T03:51:09.099Z,304.00
2019-05-20T03:52:09.089Z,312.00
2019-05-20T03:53:09.085Z,320.00
2019-05-20T03:54:09.070Z,320.00
2019-05-20T03:55:09.079Z,328.00
2019-05-20T03:56:09.058Z,336.00
2019-05-20T03:57:09.047Z,340.00
2019-05-20T03:58:12.980Z,340.00
2019-05-20T03:59:09.007Z,336.00
2019-05-20T04:00:09.002Z,328.00
2019-05-20T04:01:09.000Z,320.00
2019-05-20T04:02:09.016Z,320.00
2019-05-20T04:03:08.952Z,332.00
2019-05-20T04:04:08.942Z,356.00
2019-05-20T04:05:08.935Z,364.00
2019-05-20T04:06:08.918Z,380.00
2019-05-20T04:07:08.935Z,404.00
2019-05-20T04:08:09.022Z,412.00
2019-05-20T04:09:08.893Z,416.00
2019-05-20T04:10:08.895Z,428.00
2019-05-20T04:11:08.885Z,428.00
2019-05-20T04:12:08.952Z,412.00
2019-05-20T04:13:08.921Z,400.00
2019-05-20T04:14:08.820Z,384.00
2019-05-20T04:15:08.962Z,372.00
2019-05-20T04:16:08.959Z,372.00
2019-05-20T04:17:08.789Z,376.00
2019-05-20T04:18:08.890Z,376.00
2019-05-20T04:19:08.776Z,388.00
2019-05-20T04:20:08.826Z,412.00
2019-05-20T04:21:08.749Z,456.00
2019-05-20T04:22:08.741Z,508.00
2019-05-20T04:23:08.749Z,556.00
2019-05-20T04:24:08.753Z,600.00
2019-05-20T04:25:08.775Z,632.00
2019-05-20T04:26:08.780Z,656.00
2019-05-20T04:27:08.755Z,684.00
2019-05-20T04:28:08.711Z,704.00
2019-05-20T04:29:08.779Z,696.00
2019-05-20T04:30:08.652Z,720.00
2019-05-20T04:31:08.837Z,752.00
2019-05-20T04:32:08.624Z,784.00
2019-05-20T04:33:08.662Z,808.00
2019-05-20T04:34:08.605Z,816.00
2019-05-20T04:35:21.307Z,792.00
2019-05-20T04:36:09.754Z,768.00
2019-05-20T04:37:08.738Z,760.00
2019-05-20T04:38:08.801Z,752.00
2019-05-20T04:39:08.552Z,752.00
2019-05-20T04:40:08.556Z,752.00
2019-05-20T04:41:08.545Z,740.00
2019-05-20T04:42:08.500Z,740.00
2019-05-20T04:43:08.515Z,736.00
2019-05-20T04:44:08.497Z,752.00
2019-05-20T04:45:08.482Z,788.00
2019-05-20T04:46:08.457Z,820.00
2019-05-20T04:47:08.522Z,848.00
2019-05-20T04:48:08.449Z,880.00
2019-05-20T04:49:08.454Z,952.00
2019-05-20T04:50:08.444Z,1052.00
2019-05-20T04:51:08.405Z,1120.00
2019-05-20T04:52:08.399Z,1116.00
2019-05-20T04:53:08.394Z,1064.00
2019-05-20T04:54:08.447Z,1012.00
2019-05-20T04:55:08.397Z,980.00
2019-05-20T04:56:08.392Z,1004.00
2019-05-20T04:57:08.337Z,1052.00
2019-05-20T04:58:08.377Z,1104.00
2019-05-20T04:59:08.315Z,1100.00
2019-05-20T05:00:08.333Z,1096.00
2019-05-20T05:01:08.346Z,1084.00
2019-05-20T05:02:08.280Z,1068.00
2019-05-20T05:03:08.275Z,1056.00
2019-05-20T05:04:08.322Z,1052.00
2019-05-20T05:05:08.291Z,1040.00
2019-05-20T05:06:08.274Z,1040.00
2019-05-20T05:07:08.240Z,1052.00
2019-05-20T05:08:08.251Z,1048.00
2019-05-20T05:09:08.279Z,1040.00
2019-05-20T05:10:08.229Z,1024.00
2019-05-20T05:11:08.209Z,1000.00
2019-05-20T05:12:08.170Z,976.00
2019-05-20T05:13:08.153Z,968.00
2019-05-20T05:14:08.159Z,968.00
2019-05-20T05:15:08.298Z,980.00
2019-05-20T05:16:08.301Z,1000.00
2019-05-20T05:17:08.134Z,1040.00
2019-05-20T05:18:08.107Z,1080.00
2019-05-20T05:19:08.185Z,1116.00
2019-05-20T05:20:17.194Z,1152.00
2019-05-20T05:21:09.066Z,1176.00
2019-05-20T05:22:08.058Z,1196.00
2019-05-20T05:23:08.053Z,1212.00
2019-05-20T05:24:08.100Z,1236.00
2019-05-20T05:25:08.047Z,1236.00
2019-05-20T05:26:08.058Z,1232.00
2019-05-20T05:27:08.032Z,1244.00
2019-05-20T05:28:07.983Z,1284.00
2019-05-20T05:29:07.985Z,1356.00
2019-05-20T05:30:08.043Z,1420.00
2019-05-20T05:31:08.002Z,1448.00
2019-05-20T05:32:07.975Z,1460.00
2019-05-20T05:33:07.975Z,1464.00
2019-05-20T05:34:07.937Z,1476.00
2019-05-20T05:35:07.989Z,1500.00
2019-05-20T05:36:07.900Z,1520.00
2019-05-20T05:37:07.943Z,1536.00
2019-05-20T05:38:08.277Z,1560.00
2019-05-20T05:39:07.889Z,1604.00
2019-05-20T05:40:08.377Z,1640.00
2019-05-20T05:41:07.860Z,1736.00
2019-05-20T05:42:08.721Z,1832.00
2019-05-20T05:43:07.851Z,1880.00
2019-05-20T05:44:07.828Z,1896.00
2019-05-20T05:45:07.811Z,1952.00
2019-05-20T05:46:07.831Z,1996.00
2019-05-20T05:47:07.782Z,2052.00
2019-05-20T05:48:07.842Z,2064.00
2019-05-20T05:49:07.756Z,2076.00
2019-05-20T05:50:07.803Z,2036.00
2019-05-20T05:51:07.760Z,2000.00
2019-05-20T05:52:07.735Z,1960.00
2019-05-20T05:53:07.790Z,1928.00
2019-05-20T05:54:07.714Z,1888.00
2019-05-20T05:55:07.713Z,1832.00
2019-05-20T05:56:07.677Z,1784.00
2019-05-20T05:57:07.723Z,1764.00
2019-05-20T05:58:08.782Z,1764.00
2019-05-20T05:59:07.725Z,1788.00
2019-05-20T06:00:07.650Z,1832.00
2019-05-20T06:01:07.625Z,1844.00
2019-05-20T06:02:07.627Z,1880.00
2019-05-20T06:03:07.607Z,1976.00
2019-05-20T06:04:07.630Z,2132.00
2019-05-20T06:05:07.586Z,2368.00
2019-05-20T06:06:13.104Z,2500.00
2019-05-20T06:07:08.553Z,2528.00
2019-05-20T06:08:07.534Z,2656.00
2019-05-20T06:09:07.555Z,2848.00
2019-05-20T06:10:07.563Z,3092.00
2019-05-20T06:11:07.508Z,3328.00
2019-05-20T06:12:08.302Z,3528.00
2019-05-20T06:13:07.538Z,3704.00
2019-05-20T06:14:07.498Z,3864.00
2019-05-20T06:15:07.504Z,3884.00
2019-05-20T06:16:07.474Z,3912.00
2019-05-20T06:17:07.455Z,3848.00
2019-05-20T06:18:07.469Z,3740.00
2019-05-20T06:19:07.406Z,3720.00
2019-05-20T06:20:07.421Z,3516.00
2019-05-20T06:21:07.410Z,3416.00
2019-05-20T06:22:07.395Z,3332.00
2019-05-20T06:23:07.366Z,3256.00
2019-05-20T06:24:08.339Z,3148.00
2019-05-20T06:25:07.395Z,3080.00
2019-05-20T06:26:07.329Z,3088.00
2019-05-20T06:27:07.355Z,3076.00
2019-05-20T06:28:07.334Z,3012.00
2019-05-20T06:29:07.291Z,2892.00
2019-05-20T06:30:07.295Z,2772.00
2019-05-20T06:31:07.388Z,2700.00
2019-05-20T06:32:07.287Z,2680.00
2019-05-20T06:33:07.241Z,2728.00
2019-05-20T06:34:07.257Z,2804.00
2019-05-20T06:35:07.361Z,2772.00
2019-05-20T06:36:07.203Z,2744.00
2019-05-20T06:37:07.199Z,2760.00
2019-05-20T06:38:07.259Z,2804.00
2019-05-20T06:39:07.182Z,2880.00
2019-05-20T06:40:07.770Z,2896.00
2019-05-20T06:41:07.177Z,2864.00
2019-05-20T06:42:07.847Z,2720.00
2019-05-20T06:43:07.132Z,2556.00
2019-05-20T06:44:07.118Z,2400.00
2019-05-20T06:45:07.112Z,2240.00
2019-05-20T06:46:07.124Z,2076.00
2019-05-20T06:47:07.125Z,1960.00
2019-05-20T06:48:07.100Z,1848.00
2019-05-20T06:49:07.093Z,1748.00
2019-05-20T06:50:07.048Z,1656.00
2019-05-20T06:51:07.187Z,1628.00
2019-05-20T06:52:07.034Z,1608.00
2019-05-20T06:53:07.021Z,1600.00
2019-05-20T06:54:07.040Z,1608.00
2019-05-20T06:55:07.065Z,1632.00
2019-05-20T06:56:07.020Z,1672.00
2019-05-20T06:57:07.007Z,1716.00
2019-05-20T06:58:06.967Z,1764.00
2019-05-20T06:59:06.999Z,1820.00
2019-05-20T07:00:06.947Z,1880.00
2019-05-20T07:01:06.960Z,1948.00
2019-05-20T07:02:06.953Z,2020.00
2019-05-20T07:03:06.906Z,2084.00
2019-05-20T07:04:06.914Z,2076.00
2019-05-20T07:05:06.879Z,2076.00
2019-05-20T07:06:06.873Z,2048.00
2019-05-20T07:07:19.987Z,2004.00
2019-05-20T07:08:07.925Z,1972.00
2019-05-20T07:09:06.837Z,1932.00
2019-05-20T07:10:06.820Z,1900.00
2019-05-20T07:11:06.821Z,1888.00
2019-05-20T07:12:06.846Z,1884.00
2019-05-20T07:13:06.826Z,1888.00
2019-05-20T07:14:06.821Z,1888.00
2019-05-20T07:15:06.772Z,1888.00
2019-05-20T07:16:06.755Z,1892.00
2019-05-20T07:17:06.736Z,1920.00
2019-05-20T07:18:06.730Z,1968.00
2019-05-20T07:19:06.809Z,2028.00
2019-05-20T07:20:06.706Z,2104.00
2019-05-20T07:21:06.695Z,2176.00
2019-05-20T07:22:06.683Z,2244.00
2019-05-20T07:23:06.736Z,2304.00
2019-05-20T07:24:06.712Z,2392.00
2019-05-20T07:25:06.658Z,2492.00
2019-05-20T07:26:06.642Z,2596.00
2019-05-20T07:27:06.634Z,2672.00
2019-05-20T07:28:06.622Z,2756.00
2019-05-20T07:29:06.627Z,2868.00
2019-05-20T07:30:06.591Z,2984.00
2019-05-20T07:31:06.621Z,3112.00
2019-05-20T07:32:06.577Z,3204.00
2019-05-20T07:33:06.618Z,3236.00
2019-05-20T07:34:06.587Z,3128.00
2019-05-20T07:35:06.542Z,3084.00
2019-05-20T07:36:09.843Z,3024.00
2019-05-20T07:37:06.514Z,2964.00
2019-05-20T07:38:06.508Z,2840.00
2019-05-20T07:39:06.528Z,2684.00
2019-05-20T07:40:06.478Z,2544.00
2019-05-20T07:41:06.540Z,2408.00
2019-05-20T07:42:06.488Z,2292.00
2019-05-20T07:43:06.446Z,2192.00
2019-05-20T07:44:06.438Z,2080.00
2019-05-20T07:45:06.427Z,1956.00
2019-05-20T07:46:06.432Z,1900.00
2019-05-20T07:47:06.395Z,1920.00
2019-05-20T07:48:06.426Z,1980.00
2019-05-20T07:49:06.382Z,2072.00
2019-05-20T07:50:27.493Z,2176.00
2019-05-20T07:51:06.391Z,2268.00
2019-05-20T07:52:07.309Z,2316.00
2019-05-20T07:53:06.331Z,2324.00
2019-05-20T07:54:06.339Z,2320.00
2019-05-20T07:55:06.309Z,2288.00
2019-05-20T07:56:06.341Z,2248.00
2019-05-20T07:57:06.315Z,2208.00
2019-05-20T07:58:06.275Z,2164.00
2019-05-20T07:59:06.264Z,2120.00
2019-05-20T08:00:06.263Z,2068.00
2019-05-20T08:01:06.274Z,2016.00
2019-05-20T08:02:06.261Z,1972.00
2019-05-20T08:03:06.210Z,1928.00
2019-05-20T08:04:06.208Z,1872.00
2019-05-20T08:05:06.249Z,1824.00
2019-05-20T08:06:06.196Z,1780.00
2019-05-20T08:07:26.049Z,1756.00
2019-05-20T08:08:07.168Z,1736.00
2019-05-20T08:09:06.159Z,1728.00
2019-05-20T08:10:06.135Z,1736.00
2019-05-20T08:11:06.161Z,1764.00
2019-05-20T08:12:06.158Z,1816.00
2019-05-20T08:13:06.129Z,1888.00
2019-05-20T08:14:06.114Z,1964.00
2019-05-20T08:15:06.107Z,2056.00
2019-05-20T08:16:06.068Z,2140.00
2019-05-20T08:17:06.053Z,2200.00
2019-05-20T08:18:06.054Z,2224.00
2019-05-20T08:19:06.084Z,2224.00
2019-05-20T08:20:06.060Z,2212.00
2019-05-20T08:21:06.022Z,2216.00
2019-05-20T08:22:05.998Z,2228.00
2019-05-20T08:23:05.991Z,2264.00
2019-05-20T08:24:06.029Z,2328.00
2019-05-20T08:25:05.969Z,2404.00
2019-05-20T08:26:05.944Z,2484.00
2019-05-20T08:27:05.987Z,2560.00
2019-05-20T08:28:05.958Z,2616.00
2019-05-20T08:29:05.962Z,2660.00
2019-05-20T08:30:05.946Z,2688.00
2019-05-20T08:31:05.892Z,2712.00
2019-05-20T08:32:05.956Z,2736.00
2019-05-20T08:33:05.863Z,2772.00
2019-05-20T08:34:05.869Z,2820.00
2019-05-20T08:35:05.901Z,2860.00
2019-05-20T08:36:05.841Z,2888.00
2019-05-20T08:37:05.856Z,2904.00
2019-05-20T08:38:05.823Z,2924.00
2019-05-20T08:39:05.806Z,2952.00
2019-05-20T08:40:05.792Z,2964.00
2019-05-20T08:41:05.831Z,2952.00
2019-05-20T08:42:05.860Z,2932.00
2019-05-20T08:43:05.772Z,2944.00
2019-05-20T08:44:05.750Z,2944.00
2019-05-20T08:45:05.746Z,2908.00
2019-05-20T08:46:05.718Z,2844.00
2019-05-20T08:47:05.775Z,2776.00
2019-05-20T08:48:05.721Z,2692.00
2019-05-20T08:49:10.452Z,2600.00
2019-05-20T08:50:11.319Z,2524.00
2019-05-20T08:51:06.673Z,2472.00
2019-05-20T08:52:05.678Z,2436.00
2019-05-20T08:53:05.681Z,2396.00
2019-05-20T08:54:05.656Z,2348.00
2019-05-20T08:55:05.639Z,2296.00
2019-05-20T08:56:05.657Z,2248.00
2019-05-20T08:57:05.628Z,2192.00
2019-05-20T08:58:05.623Z,2128.00
2019-05-20T08:59:05.829Z,2052.00
2019-05-20T09:00:05.579Z,1968.00
2019-05-20T09:01:05.930Z,1896.00
2019-05-20T09:02:05.541Z,1816.00
2019-05-20T09:03:05.582Z,1740.00
2019-05-20T09:04:05.531Z,1672.00
2019-05-20T09:05:05.514Z,1604.00
2019-05-20T09:06:05.517Z,1548.00
2019-05-20T09:07:05.528Z,1492.00
2019-05-20T09:08:05.501Z,1452.00
2019-05-20T09:09:05.469Z,1420.00
2019-05-20T09:10:05.522Z,1404.00
2019-05-20T09:11:05.476Z,1392.00
2019-05-20T09:12:05.495Z,1392.00
2019-05-20T09:13:05.416Z,1384.00
2019-05-20T09:14:05.413Z,1388.00
2019-05-20T09:15:05.402Z,1396.00
2019-05-20T09:16:05.438Z,1404.00
2019-05-20T09:17:05.381Z,1400.00
2019-05-20T09:18:05.412Z,1388.00
2019-05-20T09:19:05.370Z,1372.00
2019-05-20T09:20:05.377Z,1348.00
2019-05-20T09:21:05.402Z,1332.00
2019-05-20T09:22:05.312Z,1320.00
2019-05-20T09:23:05.316Z,1312.00
2019-05-20T09:24:05.459Z,1316.00
2019-05-20T09:25:05.480Z,1332.00
2019-05-20T09:26:05.269Z,1356.00
2019-05-20T09:27:05.272Z,1400.00
2019-05-20T09:28:05.237Z,1444.00
2019-05-20T09:29:05.281Z,1496.00
2019-05-20T09:30:05.230Z,1540.00
2019-05-20T09:31:05.222Z,1584.00
2019-05-20T09:32:05.192Z,1612.00
2019-05-20T09:33:05.201Z,1640.00
2019-05-20T09:34:05.220Z,1668.00
2019-05-20T09:35:05.253Z,1688.00
2019-05-20T09:36:05.209Z,1720.00
2019-05-20T09:37:05.149Z,1776.00
2019-05-20T09:38:17.650Z,1828.00
2019-05-20T09:39:06.127Z,1880.00
2019-05-20T09:40:05.114Z,1932.00
2019-05-20T09:41:05.100Z,1980.00
2019-05-20T09:42:05.136Z,2020.00
2019-05-20T09:43:05.125Z,2032.00
2019-05-20T09:44:05.062Z,2028.00
2019-05-20T09:45:05.138Z,2008.00
2019-05-20T09:46:08.095Z,1992.00
2019-05-20T09:47:05.079Z,2000.00
2019-05-20T09:48:05.026Z,2052.00
2019-05-20T09:49:05.037Z,2124.00
2019-05-20T09:50:05.068Z,2224.00
2019-05-20T09:51:04.984Z,2344.00
2019-05-20T09:52:04.991Z,2488.00
2019-05-20T09:53:07.138Z,2608.00
2019-05-20T09:54:04.952Z,2716.00
2019-05-20T09:55:04.991Z,2812.00
2019-05-20T09:56:04.964Z,2888.00
2019-05-20T09:57:04.927Z,2944.00
2019-05-20T09:58:04.927Z,2980.00
2019-05-20T09:59:04.914Z,2988.00
2019-05-20T10:00:05.894Z,2984.00
2019-05-20T10:01:04.942Z,2992.00
2019-05-20T10:02:04.917Z,3036.00
2019-05-20T10:03:05.240Z,3120.00
2019-05-20T10:04:04.882Z,3224.00
2019-05-20T10:05:25.946Z,3328.00
2019-05-20T10:06:04.863Z,3412.00
2019-05-20T10:07:04.854Z,3440.00
2019-05-20T10:08:04.811Z,3428.00
2019-05-20T10:09:04.806Z,3380.00
2019-05-20T10:10:04.784Z,3308.00
2019-05-20T10:11:04.763Z,3188.00
2019-05-20T10:12:04.842Z,3052.00
2019-05-20T10:13:04.822Z,2932.00
2019-05-20T10:14:04.726Z,2848.00
2019-05-20T10:15:04.744Z,2788.00
2019-05-20T10:16:04.762Z,2764.00
2019-05-20T10:17:04.718Z,2764.00
2019-05-20T10:18:04.680Z,2792.00
2019-05-20T10:19:04.692Z,2820.00
2019-05-20T10:20:04.699Z,2836.00
2019-05-20T10:21:04.690Z,2840.00
2019-05-20T10:22:04.642Z,2828.00
2019-05-20T10:23:04.759Z,2796.00
2019-05-20T10:24:04.613Z,2756.00
2019-05-20T10:25:04.730Z,2716.00
2019-05-20T10:26:04.623Z,2684.00
2019-05-20T10:27:04.621Z,2652.00
2019-05-20T10:28:04.621Z,2632.00
2019-05-20T10:29:04.597Z,2624.00
2019-05-20T10:30:04.548Z,2600.00
2019-05-20T10:31:04.572Z,2564.00
2019-05-20T10:32:04.516Z,2532.00
2019-05-20T10:33:09.464Z,2516.00
2019-05-20T10:34:05.544Z,2492.00
2019-05-20T10:35:04.494Z,2468.00
2019-05-20T10:36:04.579Z,2444.00
2019-05-20T10:37:04.466Z,2428.00
2019-05-20T10:38:04.485Z,2412.00
2019-05-20T10:39:07.683Z,2376.00
2019-05-20T10:40:04.461Z,2344.00
2019-05-20T10:41:04.423Z,2288.00
2019-05-20T10:42:04.422Z,2200.00
2019-05-20T10:43:04.453Z,2128.00
2019-05-20T10:44:04.467Z,2068.00
2019-05-20T10:45:04.417Z,2020.00
2019-05-20T10:46:04.451Z,1968.00
2019-05-20T10:47:04.394Z,1916.00
2019-05-20T10:48:08.385Z,1884.00
2019-05-20T10:49:04.344Z,1872.00
2019-05-20T10:50:04.352Z,1860.00
2019-05-20T10:51:04.352Z,1832.00
2019-05-20T10:52:04.302Z,1780.00
2019-05-20T10:53:04.371Z,1712.00
2019-05-20T10:54:04.285Z,1632.00
2019-05-20T10:55:04.256Z,1556.00
2019-05-20T10:56:04.270Z,1468.00
2019-05-20T10:57:04.294Z,1388.00
2019-05-20T10:58:04.242Z,1312.00
2019-05-20T10:59:04.243Z,1256.00
2019-05-20T11:00:04.295Z,1204.00
2019-05-20T11:01:04.215Z,1160.00
2019-05-20T11:02:04.210Z,1136.00
2019-05-20T11:03:04.236Z,1132.00
2019-05-20T11:04:04.157Z,1136.00
2019-05-20T11:05:04.138Z,1148.00
2019-05-20T11:06:04.142Z,1140.00
2019-05-20T11:07:04.125Z,1140.00
2019-05-20T11:08:04.176Z,1168.00
2019-05-20T11:09:13.753Z,1208.00
2019-05-20T11:10:05.111Z,1240.00
2019-05-20T11:11:04.155Z,1260.00
2019-05-20T11:12:04.077Z,1264.00
2019-05-20T11:13:04.085Z,1252.00
2019-05-20T11:14:04.051Z,1232.00
2019-05-20T11:15:04.071Z,1220.00
2019-05-20T11:16:04.034Z,1224.00
2019-05-20T11:17:04.009Z,1236.00
2019-05-20T11:18:04.064Z,1232.00
2019-05-20T11:19:03.989Z,1212.00
2019-05-20T11:20:03.971Z,1180.00
2019-05-20T11:21:03.976Z,1128.00
2019-05-20T11:22:03.961Z,1068.00
2019-05-20T11:23:03.977Z,1000.00
2019-05-20T11:24:03.965Z,928.00
2019-05-20T11:25:03.972Z,876.00
2019-05-20T11:26:03.922Z,848.00
2019-05-20T11:27:03.898Z,812.00
2019-05-20T11:28:03.884Z,768.00
2019-05-20T11:29:03.870Z,740.00
2019-05-20T11:30:03.912Z,728.00
2019-05-20T11:31:03.842Z,768.00
2019-05-20T11:32:03.835Z,856.00
2019-05-20T11:33:03.890Z,940.00
2019-05-20T11:34:03.834Z,1000.00
2019-05-20T11:35:03.828Z,1020.00
2019-05-20T11:36:03.788Z,996.00
2019-05-20T11:37:03.940Z,976.00
2019-05-20T11:38:03.768Z,928.00
2019-05-20T11:39:06.692Z,876.00
2019-05-20T11:40:04.775Z,832.00
2019-05-20T11:41:03.739Z,812.00
2019-05-20T11:42:03.803Z,792.00
2019-05-20T11:43:03.716Z,812.00
2019-05-20T11:44:03.713Z,820.00
2019-05-20T11:45:03.681Z,800.00
2019-05-20T11:46:03.680Z,772.00
2019-05-20T11:47:03.732Z,736.00
2019-05-20T11:48:04.326Z,692.00
2019-05-20T11:49:03.703Z,668.00
2019-05-20T11:51:22.667Z,644.00
2019-05-20T11:53:15.235Z,536.00
2019-05-20T11:55:26.128Z,436.00
2019-05-20T11:57:42.037Z,604.00
2019-05-20T11:58:41.929Z,752.00
2019-05-20T11:59:41.897Z,884.00
2019-05-20T12:00:43.049Z,988.00
2019-05-20T12:01:42.004Z,1040.00
2019-05-20T12:02:41.803Z,1048.00
2019-05-20T12:03:41.804Z,1048.00
2019-05-20T12:05:02.838Z,1068.00
2019-05-20T12:05:41.766Z,1116.00
2019-05-20T12:06:41.757Z,1172.00
2019-05-20T12:07:41.793Z,1236.00
2019-05-20T12:08:41.718Z,1304.00
2019-05-20T12:09:49.465Z,1324.00
2019-05-20T12:10:42.694Z,1332.00
2019-05-20T12:11:41.901Z,1312.00
2019-05-20T12:12:41.682Z,1284.00
2019-05-20T12:13:41.678Z,1264.00
2019-05-20T12:14:41.651Z,1236.00
2019-05-20T12:15:55.890Z,1260.00
2019-05-20T12:16:41.810Z,1288.00
2019-05-20T12:17:41.751Z,1316.00
2019-05-20T12:19:05.824Z,1332.00
2019-05-20T12:19:41.747Z,1336.00
2019-05-20T12:20:51.171Z,1400.00
2019-05-20T12:21:51.247Z,1468.00
2019-05-20T12:22:41.694Z,1492.00
2019-05-20T12:23:41.668Z,1512.00
2019-05-20T12:24:41.706Z,1480.00
2019-05-20T12:25:41.568Z,1416.00
2019-05-20T12:26:41.508Z,1348.00
2019-05-20T12:27:59.785Z,1304.00
2019-05-20T12:28:58.728Z,1280.00
2019-05-20T12:29:56.000Z,1260.00
2019-05-20T12:30:56.291Z,1232.00
2019-05-20T12:31:50.802Z,1208.00